FW0516 Weather Reports


Display with metric or nautical units.
time (UTC)temp
F
wind
direction
speed
MPH
gust
MPH
rain 1hr
in
rain 24hr
in
rain mn
in
humidity
%
barometer
mb
20190216153017 12 22 3.0 10.0 0.00 0.00 0.00 76 1021.9
20190216150017 11 22 3.0 8.0 0.00 0.00 0.00 77 1021.9
20190216143017 9 22 2.0 9.0 0.00 0.00 0.00 78 1022.0
20190216140017 8 67 1.0 4.0 0.00 0.00 0.00 78 1021.9
20190216133017 6 22 2.0 7.0 0.00 0.00 0.00 81 1021.5
20190216130016 4 22 2.0 7.0 0.00 0.00 0.00 81 1020.9
20190216123016 4 0 3.0 7.0 0.00 0.00 0.00 81 1020.4
20190216120017 4 0 3.0 8.0 0.00 0.00 0.00 80 1020.6
20190216113017 5 337 2.0 4.0 0.00 0.00 0.00 80 1021.0
20190216110016 5 337 2.0 4.0 0.00 0.00 0.00 79 1021.1
20190216103016 6 337 2.0 5.0 0.00 0.00 0.00 79 1020.8
20190216100016 6 337 2.0 4.0 0.00 0.00 0.00 78 1020.7
20190216093017 7 337 2.0 5.0 0.00 0.00 0.00 77 1020.8
20190216090016 6 0 1.0 3.0 0.00 0.00 0.00 77 1020.4
20190216083016 7 0 3.0 10.0 0.00 0.00 0.00 76 1020.2
20190216080016 8 337 5.0 12.0 0.00 0.00 0.00 75 1019.8
20190216073016 9 337 4.0 9.0 0.00 0.00 0.00 74 1020.4
20190216070016 9 337 3.0 8.0 0.00 0.00 0.00 74 1020.3
20190216063017 9 337 4.0 9.0 0.00 0.00 0.00 73 1020.5
20190216060016 9 337 4.0 10.0 0.00 0.00 0.00 72 1019.8
20190216053015 10 337 5.0 14.0 0.00 0.00 0.00 71 1019.4
20190216050015 10 337 4.0 10.0 0.00 0.00 0.00 71 1019.5
20190216043015 10 337 4.0 11.0 0.00 0.00 0.00 71 1019.3
20190216040015 11 337 4.0 8.0 0.00 0.00 0.00 71 1019.0
20190216033015 11 337 3.0 7.0 0.00 0.00 0.00 71 1018.8
20190216030017 11 315 3.0 6.0 0.00 0.00 0.00 71 1018.9
20190216023018 12 337 3.0 8.0 0.00 0.00 0.00 70 1018.8
20190216020017 12 315 3.0 7.0 0.00 0.00 0.00 69 1018.4
20190216013017 13 315 3.0 8.0 0.00 0.00 0.00 69 1017.9
20190216010017 13 315 3.0 8.0 0.00 0.00 0.00 68 1017.4
20190216003016 14 315 4.0 9.0 0.00 0.01 0.00 67 1017.3
20190216000017 14 315 4.0 9.0 0.00 0.01 0.01 67 1016.9
20190215233016 14 315 3.0 7.0 0.00 0.01 0.01 66 1016.6
20190215230016 15 315 6.0 10.0 0.00 0.01 0.01 64 1016.0
20190215223016 16 315 5.0 9.0 0.00 0.02 0.01 64 1015.5
20190215220016 16 315 7.0 12.0 0.00 0.03 0.01 64 1015.4
20190215213016 15 315 8.0 13.0 0.00 0.04 0.01 64 1015.2
20190215210016 15 315 9.0 15.0 0.00 0.05 0.01 65 1015.2
20190215203016 15 315 8.0 12.0 0.00 0.07 0.01 66 1015.4
20190215200015 13 315 9.0 13.0 0.00 0.09 0.01 67 1015.2
20190215193015 13 315 7.0 13.0 0.00 0.10 0.01 67 1015.0
20190215190015 12 315 8.0 13.0 0.00 0.12 0.01 66 1015.2
20190215183015 10 292 7.0 13.0 0.00 0.16 0.01 66 1015.0
20190215180016 10 292 7.0 15.0 0.00 0.19 0.01 67 1014.7
20190215173015 7 292 8.0 13.0 0.00 0.24 0.01 69 1014.5
20190215170015 6 292 9.0 14.0 0.00 0.28 0.01 70 1013.8
20190215163016 5 292 9.0 16.0 0.00 0.34 0.01 71 1013.2
20190215160017 3 315 10.0 16.0 0.00 0.34 0.01 71 1013.1